sensor_id;sensor_type;location;lat;lon;timestamp;P1;durP1;ratioP1;P2;durP2;ratioP2
27746;SDS011;15138;51.012;4.692;2023-06-26T00:01:30;6.88;;;4.18;;
27746;SDS011;15138;51.012;4.692;2023-06-26T00:03:59;7.18;;;4.18;;
27746;SDS011;15138;51.012;4.692;2023-06-26T00:06:29;8.00;;;4.10;;
27746;SDS011;15138;51.012;4.692;2023-06-26T00:08:57;6.72;;;4.10;;
27746;SDS011;15138;51.012;4.692;2023-06-26T00:11:26;7.60;;;3.97;;
27746;SDS011;15138;51.012;4.692;2023-06-26T00:13:57;5.72;;;3.78;;
27746;SDS011;15138;51.012;4.692;2023-06-26T00:16:26;12.40;;;4.05;;
27746;SDS011;15138;51.012;4.692;2023-06-26T00:18:55;6.55;;;3.80;;
27746;SDS011;15138;51.012;4.692;2023-06-26T00:21:23;6.88;;;3.63;;
27746;SDS011;15138;51.012;4.692;2023-06-26T00:23:53;7.10;;;4.40;;
27746;SDS011;15138;51.012;4.692;2023-06-26T00:26:21;4.78;;;3.45;;
27746;SDS011;15138;51.012;4.692;2023-06-26T00:28:50;6.57;;;4.10;;
27746;SDS011;15138;51.012;4.692;2023-06-26T00:31:19;6.55;;;3.65;;
27746;SDS011;15138;51.012;4.692;2023-06-26T00:33:47;7.22;;;4.45;;
27746;SDS011;15138;51.012;4.692;2023-06-26T00:36:16;13.70;;;4.43;;
27746;SDS011;15138;51.012;4.692;2023-06-26T00:38:44;6.00;;;3.70;;
27746;SDS011;15138;51.012;4.692;2023-06-26T00:41:14;6.03;;;4.13;;
27746;SDS011;15138;51.012;4.692;2023-06-26T00:43:43;7.43;;;4.15;;
27746;SDS011;15138;51.012;4.692;2023-06-26T00:46:12;7.22;;;4.32;;
27746;SDS011;15138;51.012;4.692;2023-06-26T00:48:41;6.50;;;4.30;;
27746;SDS011;15138;51.012;4.692;2023-06-26T00:51:12;6.40;;;4.00;;
27746;SDS011;15138;51.012;4.692;2023-06-26T00:53:41;4.68;;;3.60;;
27746;SDS011;15138;51.012;4.692;2023-06-26T00:56:09;7.95;;;4.00;;
27746;SDS011;15138;51.012;4.692;2023-06-26T00:58:39;5.97;;;3.70;;
27746;SDS011;15138;51.012;4.692;2023-06-26T01:01:08;5.97;;;3.75;;
27746;SDS011;15138;51.012;4.692;2023-06-26T01:03:43;5.55;;;3.55;;
27746;SDS011;15138;51.012;4.692;2023-06-26T01:06:13;9.30;;;3.88;;
27746;SDS011;15138;51.012;4.692;2023-06-26T01:08:42;8.73;;;4.30;;
27746;SDS011;15138;51.012;4.692;2023-06-26T01:11:11;6.60;;;3.95;;
27746;SDS011;15138;51.012;4.692;2023-06-26T01:13:42;5.85;;;3.80;;
27746;SDS011;15138;51.012;4.692;2023-06-26T01:16:11;6.55;;;3.75;;
27746;SDS011;15138;51.012;4.692;2023-06-26T01:18:40;8.77;;;3.60;;
27746;SDS011;15138;51.012;4.692;2023-06-26T01:21:09;9.68;;;3.83;;
27746;SDS011;15138;51.012;4.692;2023-06-26T01:23:38;5.78;;;3.78;;
27746;SDS011;15138;51.012;4.692;2023-06-26T01:26:12;6.00;;;4.10;;
27746;SDS011;15138;51.012;4.692;2023-06-26T01:28:42;7.57;;;4.00;;
27746;SDS011;15138;51.012;4.692;2023-06-26T01:31:11;10.30;;;3.90;;
27746;SDS011;15138;51.012;4.692;2023-06-26T01:33:40;4.72;;;3.45;;
27746;SDS011;15138;51.012;4.692;2023-06-26T01:36:09;5.80;;;3.75;;
27746;SDS011;15138;51.012;4.692;2023-06-26T01:38:38;8.43;;;3.75;;
27746;SDS011;15138;51.012;4.692;2023-06-26T01:41:06;7.57;;;3.53;;
27746;SDS011;15138;51.012;4.692;2023-06-26T01:43:39;6.90;;;3.35;;
27746;SDS011;15138;51.012;4.692;2023-06-26T01:46:10;6.33;;;3.50;;
27746;SDS011;15138;51.012;4.692;2023-06-26T01:48:42;6.55;;;3.17;;
27746;SDS011;15138;51.012;4.692;2023-06-26T01:51:11;4.90;;;3.05;;
27746;SDS011;15138;51.012;4.692;2023-06-26T01:53:41;6.70;;;3.53;;
27746;SDS011;15138;51.012;4.692;2023-06-26T01:56:13;6.57;;;3.40;;
27746;SDS011;15138;51.012;4.692;2023-06-26T01:58:45;7.60;;;3.40;;
27746;SDS011;15138;51.012;4.692;2023-06-26T02:01:14;8.90;;;3.60;;
27746;SDS011;15138;51.012;4.692;2023-06-26T02:03:43;9.30;;;3.45;;
27746;SDS011;15138;51.012;4.692;2023-06-26T02:06:11;7.07;;;3.58;;
27746;SDS011;15138;51.012;4.692;2023-06-26T02:08:40;6.60;;;3.30;;
27746;SDS011;15138;51.012;4.692;2023-06-26T02:11:08;8.27;;;3.60;;
27746;SDS011;15138;51.012;4.692;2023-06-26T02:13:37;6.00;;;3.50;;
27746;SDS011;15138;51.012;4.692;2023-06-26T02:16:06;7.25;;;3.58;;
27746;SDS011;15138;51.012;4.692;2023-06-26T02:18:35;10.70;;;3.22;;
27746;SDS011;15138;51.012;4.692;2023-06-26T02:21:03;7.05;;;3.28;;
27746;SDS011;15138;51.012;4.692;2023-06-26T02:23:32;7.80;;;3.20;;
27746;SDS011;15138;51.012;4.692;2023-06-26T02:26:01;7.53;;;3.60;;
27746;SDS011;15138;51.012;4.692;2023-06-26T02:28:29;10.00;;;3.42;;
27746;SDS011;15138;51.012;4.692;2023-06-26T02:31:00;6.90;;;3.53;;
27746;SDS011;15138;51.012;4.692;2023-06-26T02:33:29;6.78;;;3.40;;
27746;SDS011;15138;51.012;4.692;2023-06-26T02:35:58;11.43;;;4.18;;
27746;SDS011;15138;51.012;4.692;2023-06-26T02:38:27;7.95;;;3.35;;
27746;SDS011;15138;51.012;4.692;2023-06-26T02:40:55;9.68;;;3.00;;
27746;SDS011;15138;51.012;4.692;2023-06-26T02:43:24;8.13;;;3.30;;
27746;SDS011;15138;51.012;4.692;2023-06-26T02:45:52;6.97;;;3.85;;
27746;SDS011;15138;51.012;4.692;2023-06-26T02:48:21;9.23;;;3.63;;
27746;SDS011;15138;51.012;4.692;2023-06-26T02:50:50;8.27;;;3.50;;
27746;SDS011;15138;51.012;4.692;2023-06-26T02:53:19;8.93;;;3.28;;
27746;SDS011;15138;51.012;4.692;2023-06-26T02:55:47;5.47;;;2.95;;
27746;SDS011;15138;51.012;4.692;2023-06-26T02:58:16;6.40;;;2.90;;
27746;SDS011;15138;51.012;4.692;2023-06-26T03:00:44;8.73;;;3.67;;
27746;SDS011;15138;51.012;4.692;2023-06-26T03:03:13;10.02;;;3.47;;
27746;SDS011;15138;51.012;4.692;2023-06-26T03:05:42;6.65;;;2.92;;
27746;SDS011;15138;51.012;4.692;2023-06-26T03:08:11;6.05;;;2.88;;
27746;SDS011;15138;51.012;4.692;2023-06-26T03:10:40;8.40;;;3.05;;
27746;SDS011;15138;51.012;4.692;2023-06-26T03:13:08;6.78;;;2.88;;
27746;SDS011;15138;51.012;4.692;2023-06-26T03:15:37;8.02;;;3.20;;
27746;SDS011;15138;51.012;4.692;2023-06-26T03:18:05;6.95;;;3.22;;
27746;SDS011;15138;51.012;4.692;2023-06-26T03:20:33;9.77;;;3.50;;
27746;SDS011;15138;51.012;4.692;2023-06-26T03:23:02;6.68;;;2.83;;
27746;SDS011;15138;51.012;4.692;2023-06-26T03:25:32;11.20;;;3.40;;
27746;SDS011;15138;51.012;4.692;2023-06-26T03:28:00;6.18;;;2.90;;
27746;SDS011;15138;51.012;4.692;2023-06-26T03:30:28;7.18;;;3.17;;
27746;SDS011;15138;51.012;4.692;2023-06-26T03:32:57;11.88;;;3.78;;
27746;SDS011;15138;51.012;4.692;2023-06-26T03:35:25;9.82;;;3.33;;
27746;SDS011;15138;51.012;4.692;2023-06-26T03:37:53;9.93;;;3.53;;
27746;SDS011;15138;51.012;4.692;2023-06-26T03:40:21;11.35;;;3.58;;
27746;SDS011;15138;51.012;4.692;2023-06-26T03:42:51;10.15;;;3.45;;
27746;SDS011;15138;51.012;4.692;2023-06-26T03:45:19;10.70;;;3.42;;
27746;SDS011;15138;51.012;4.692;2023-06-26T03:47:48;8.43;;;3.70;;
27746;SDS011;15138;51.012;4.692;2023-06-26T03:50:16;10.20;;;3.35;;
27746;SDS011;15138;51.012;4.692;2023-06-26T03:52:44;15.90;;;3.60;;
27746;SDS011;15138;51.012;4.692;2023-06-26T03:55:13;11.15;;;3.85;;
27746;SDS011;15138;51.012;4.692;2023-06-26T03:57:44;14.38;;;3.88;;
27746;SDS011;15138;51.012;4.692;2023-06-26T04:00:14;9.98;;;3.92;;
27746;SDS011;15138;51.012;4.692;2023-06-26T04:02:43;13.73;;;3.67;;
27746;SDS011;15138;51.012;4.692;2023-06-26T04:05:11;12.25;;;3.55;;
27746;SDS011;15138;51.012;4.692;2023-06-26T04:07:40;9.88;;;3.45;;
27746;SDS011;15138;51.012;4.692;2023-06-26T04:10:09;11.02;;;3.20;;
27746;SDS011;15138;51.012;4.692;2023-06-26T04:12:37;11.05;;;3.25;;
27746;SDS011;15138;51.012;4.692;2023-06-26T04:15:06;10.40;;;3.42;;
27746;SDS011;15138;51.012;4.692;2023-06-26T04:17:36;11.63;;;3.90;;
27746;SDS011;15138;51.012;4.692;2023-06-26T04:20:08;10.20;;;3.70;;
27746;SDS011;15138;51.012;4.692;2023-06-26T04:22:36;10.02;;;3.47;;
27746;SDS011;15138;51.012;4.692;2023-06-26T04:25:05;18.98;;;4.00;;
27746;SDS011;15138;51.012;4.692;2023-06-26T04:27:33;16.90;;;4.00;;
27746;SDS011;15138;51.012;4.692;2023-06-26T04:30:06;10.38;;;3.08;;
27746;SDS011;15138;51.012;4.692;2023-06-26T04:32:35;12.63;;;3.47;;
27746;SDS011;15138;51.012;4.692;2023-06-26T04:35:04;12.65;;;4.00;;
27746;SDS011;15138;51.012;4.692;2023-06-26T04:37:33;15.55;;;4.22;;
27746;SDS011;15138;51.012;4.692;2023-06-26T04:40:03;11.18;;;3.85;;
27746;SDS011;15138;51.012;4.692;2023-06-26T04:42:31;11.88;;;3.83;;
27746;SDS011;15138;51.012;4.692;2023-06-26T04:45:00;15.98;;;3.90;;
27746;SDS011;15138;51.012;4.692;2023-06-26T04:47:29;12.20;;;3.83;;
27746;SDS011;15138;51.012;4.692;2023-06-26T04:49:59;14.77;;;3.90;;
27746;SDS011;15138;51.012;4.692;2023-06-26T04:52:27;9.90;;;3.05;;
27746;SDS011;15138;51.012;4.692;2023-06-26T04:54:55;10.90;;;3.83;;
27746;SDS011;15138;51.012;4.692;2023-06-26T04:57:24;15.20;;;3.75;;
27746;SDS011;15138;51.012;4.692;2023-06-26T04:59:52;14.77;;;4.10;;
27746;SDS011;15138;51.012;4.692;2023-06-26T05:02:21;10.68;;;3.53;;
27746;SDS011;15138;51.012;4.692;2023-06-26T05:04:49;16.98;;;4.18;;
27746;SDS011;15138;51.012;4.692;2023-06-26T05:07:19;15.73;;;3.78;;
27746;SDS011;15138;51.012;4.692;2023-06-26T05:09:47;15.38;;;3.72;;
27746;SDS011;15138;51.012;4.692;2023-06-26T05:12:16;13.50;;;3.67;;
27746;SDS011;15138;51.012;4.692;2023-06-26T05:14:44;9.30;;;3.30;;
27746;SDS011;15138;51.012;4.692;2023-06-26T05:17:13;10.77;;;3.08;;
27746;SDS011;15138;51.012;4.692;2023-06-26T05:19:41;10.80;;;3.65;;
27746;SDS011;15138;51.012;4.692;2023-06-26T05:22:10;19.00;;;4.38;;
27746;SDS011;15138;51.012;4.692;2023-06-26T05:24:40;13.13;;;4.05;;
27746;SDS011;15138;51.012;4.692;2023-06-26T05:27:11;12.15;;;3.40;;
27746;SDS011;15138;51.012;4.692;2023-06-26T05:29:47;12.65;;;3.28;;
27746;SDS011;15138;51.012;4.692;2023-06-26T05:32:16;9.13;;;2.70;;
27746;SDS011;15138;51.012;4.692;2023-06-26T05:34:45;15.93;;;3.80;;
27746;SDS011;15138;51.012;4.692;2023-06-26T05:37:14;8.85;;;2.92;;
27746;SDS011;15138;51.012;4.692;2023-06-26T05:39:44;13.60;;;4.15;;
27746;SDS011;15138;51.012;4.692;2023-06-26T05:42:13;16.23;;;3.60;;
27746;SDS011;15138;51.012;4.692;2023-06-26T05:44:42;13.77;;;3.53;;
27746;SDS011;15138;51.012;4.692;2023-06-26T05:47:10;13.15;;;3.40;;
27746;SDS011;15138;51.012;4.692;2023-06-26T05:49:38;14.38;;;3.40;;
27746;SDS011;15138;51.012;4.692;2023-06-26T05:52:07;14.25;;;2.90;;
27746;SDS011;15138;51.012;4.692;2023-06-26T05:54:36;10.32;;;2.90;;
27746;SDS011;15138;51.012;4.692;2023-06-26T05:57:06;14.45;;;3.10;;
27746;SDS011;15138;51.012;4.692;2023-06-26T05:59:35;12.70;;;3.53;;
27746;SDS011;15138;51.012;4.692;2023-06-26T06:02:05;16.98;;;3.85;;
27746;SDS011;15138;51.012;4.692;2023-06-26T06:04:33;9.88;;;3.00;;
27746;SDS011;15138;51.012;4.692;2023-06-26T06:07:03;12.90;;;3.10;;
27746;SDS011;15138;51.012;4.692;2023-06-26T06:09:32;17.83;;;3.38;;
27746;SDS011;15138;51.012;4.692;2023-06-26T06:12:00;17.52;;;3.55;;
27746;SDS011;15138;51.012;4.692;2023-06-26T06:14:31;12.93;;;3.55;;
27746;SDS011;15138;51.012;4.692;2023-06-26T06:17:00;12.60;;;2.97;;
27746;SDS011;15138;51.012;4.692;2023-06-26T06:19:28;10.60;;;3.00;;
27746;SDS011;15138;51.012;4.692;2023-06-26T06:21:57;16.55;;;3.70;;
27746;SDS011;15138;51.012;4.692;2023-06-26T06:24:25;13.85;;;3.10;;
27746;SDS011;15138;51.012;4.692;2023-06-26T06:26:53;13.30;;;3.47;;
27746;SDS011;15138;51.012;4.692;2023-06-26T06:29:22;19.48;;;3.20;;
27746;SDS011;15138;51.012;4.692;2023-06-26T06:31:52;12.07;;;3.17;;
27746;SDS011;15138;51.012;4.692;2023-06-26T06:34:20;15.18;;;3.47;;
27746;SDS011;15138;51.012;4.692;2023-06-26T06:36:49;9.80;;;3.03;;
27746;SDS011;15138;51.012;4.692;2023-06-26T06:39:17;8.30;;;2.50;;
27746;SDS011;15138;51.012;4.692;2023-06-26T06:41:46;10.38;;;2.50;;
27746;SDS011;15138;51.012;4.692;2023-06-26T06:44:14;10.75;;;2.30;;
27746;SDS011;15138;51.012;4.692;2023-06-26T06:46:43;19.67;;;3.42;;
27746;SDS011;15138;51.012;4.692;2023-06-26T06:49:12;13.50;;;2.83;;
27746;SDS011;15138;51.012;4.692;2023-06-26T06:51:41;10.65;;;2.80;;
27746;SDS011;15138;51.012;4.692;2023-06-26T06:54:09;13.05;;;2.28;;
27746;SDS011;15138;51.012;4.692;2023-06-26T06:56:38;8.30;;;2.03;;
27746;SDS011;15138;51.012;4.692;2023-06-26T06:59:06;11.20;;;2.47;;
27746;SDS011;15138;51.012;4.692;2023-06-26T07:01:35;10.25;;;2.53;;
27746;SDS011;15138;51.012;4.692;2023-06-26T07:04:04;13.85;;;2.45;;
27746;SDS011;15138;51.012;4.692;2023-06-26T07:06:34;7.75;;;2.67;;
27746;SDS011;15138;51.012;4.692;2023-06-26T07:09:02;10.98;;;2.45;;
27746;SDS011;15138;51.012;4.692;2023-06-26T07:11:32;9.50;;;1.70;;
27746;SDS011;15138;51.012;4.692;2023-06-26T07:14:00;10.95;;;2.88;;
27746;SDS011;15138;51.012;4.692;2023-06-26T07:16:29;9.43;;;1.95;;
27746;SDS011;15138;51.012;4.692;2023-06-26T07:18:58;10.95;;;2.75;;
27746;SDS011;15138;51.012;4.692;2023-06-26T07:21:26;8.82;;;2.20;;
27746;SDS011;15138;51.012;4.692;2023-06-26T07:23:56;11.75;;;2.60;;
27746;SDS011;15138;51.012;4.692;2023-06-26T07:26:25;15.25;;;2.28;;
27746;SDS011;15138;51.012;4.692;2023-06-26T07:29:10;10.43;;;2.13;;
27746;SDS011;15138;51.012;4.692;2023-06-26T07:31:38;7.93;;;1.80;;
27746;SDS011;15138;51.012;4.692;2023-06-26T07:34:06;11.32;;;2.38;;
27746;SDS011;15138;51.012;4.692;2023-06-26T07:36:35;9.77;;;2.45;;
27746;SDS011;15138;51.012;4.692;2023-06-26T07:39:05;7.38;;;1.98;;
27746;SDS011;15138;51.012;4.692;2023-06-26T07:41:36;11.50;;;2.60;;
27746;SDS011;15138;51.012;4.692;2023-06-26T07:44:04;10.50;;;2.17;;
27746;SDS011;15138;51.012;4.692;2023-06-26T07:46:33;11.65;;;2.33;;
27746;SDS011;15138;51.012;4.692;2023-06-26T07:49:01;10.90;;;2.17;;
27746;SDS011;15138;51.012;4.692;2023-06-26T07:51:30;7.80;;;2.20;;
27746;SDS011;15138;51.012;4.692;2023-06-26T07:53:58;6.38;;;1.70;;
27746;SDS011;15138;51.012;4.692;2023-06-26T07:56:28;9.13;;;1.95;;
27746;SDS011;15138;51.012;4.692;2023-06-26T07:58:57;9.68;;;2.40;;
27746;SDS011;15138;51.012;4.692;2023-06-26T08:01:26;7.53;;;2.20;;
27746;SDS011;15138;51.012;4.692;2023-06-26T08:03:55;13.73;;;2.67;;
27746;SDS011;15138;51.012;4.692;2023-06-26T08:06:24;8.75;;;1.75;;
27746;SDS011;15138;51.012;4.692;2023-06-26T08:08:52;14.65;;;2.28;;
27746;SDS011;15138;51.012;4.692;2023-06-26T08:11:20;8.63;;;2.25;;
27746;SDS011;15138;51.012;4.692;2023-06-26T08:13:50;3.85;;;1.58;;
27746;SDS011;15138;51.012;4.692;2023-06-26T08:16:19;9.10;;;2.00;;
27746;SDS011;15138;51.012;4.692;2023-06-26T08:18:47;8.02;;;2.15;;
27746;SDS011;15138;51.012;4.692;2023-06-26T08:21:16;13.48;;;2.00;;
27746;SDS011;15138;51.012;4.692;2023-06-26T08:23:45;6.70;;;2.28;;
27746;SDS011;15138;51.012;4.692;2023-06-26T08:26:13;11.15;;;2.40;;
27746;SDS011;15138;51.012;4.692;2023-06-26T08:28:41;8.25;;;2.10;;
27746;SDS011;15138;51.012;4.692;2023-06-26T08:31:11;11.50;;;1.80;;
27746;SDS011;15138;51.012;4.692;2023-06-26T08:33:39;9.23;;;2.13;;
27746;SDS011;15138;51.012;4.692;2023-06-26T08:36:09;5.10;;;1.55;;
27746;SDS011;15138;51.012;4.692;2023-06-26T08:38:39;7.75;;;1.50;;
27746;SDS011;15138;51.012;4.692;2023-06-26T08:41:07;6.78;;;1.58;;
27746;SDS011;15138;51.012;4.692;2023-06-26T08:43:36;7.93;;;1.55;;
27746;SDS011;15138;51.012;4.692;2023-06-26T08:46:04;3.53;;;1.10;;
27746;SDS011;15138;51.012;4.692;2023-06-26T08:48:34;6.35;;;1.70;;
27746;SDS011;15138;51.012;4.692;2023-06-26T08:51:05;5.90;;;1.63;;
27746;SDS011;15138;51.012;4.692;2023-06-26T08:53:43;9.20;;;1.55;;
27746;SDS011;15138;51.012;4.692;2023-06-26T08:56:17;5.30;;;1.40;;
27746;SDS011;15138;51.012;4.692;2023-06-26T08:58:48;4.95;;;1.23;;
27746;SDS011;15138;51.012;4.692;2023-06-26T09:01:17;7.75;;;1.67;;
27746;SDS011;15138;51.012;4.692;2023-06-26T09:03:47;9.60;;;1.63;;
27746;SDS011;15138;51.012;4.692;2023-06-26T09:06:15;8.05;;;1.42;;
27746;SDS011;15138;51.012;4.692;2023-06-26T09:08:46;7.72;;;1.30;;
27746;SDS011;15138;51.012;4.692;2023-06-26T09:11:14;8.23;;;1.38;;
27746;SDS011;15138;51.012;4.692;2023-06-26T09:13:42;9.57;;;1.50;;
27746;SDS011;15138;51.012;4.692;2023-06-26T09:16:11;7.43;;;1.52;;
27746;SDS011;15138;51.012;4.692;2023-06-26T09:18:40;7.38;;;1.48;;
27746;SDS011;15138;51.012;4.692;2023-06-26T09:21:10;8.27;;;2.10;;
27746;SDS011;15138;51.012;4.692;2023-06-26T09:23:39;6.78;;;1.67;;
27746;SDS011;15138;51.012;4.692;2023-06-26T09:26:08;4.90;;;1.40;;
27746;SDS011;15138;51.012;4.692;2023-06-26T09:28:36;8.77;;;1.85;;
27746;SDS011;15138;51.012;4.692;2023-06-26T09:31:07;5.13;;;1.35;;
27746;SDS011;15138;51.012;4.692;2023-06-26T09:33:37;5.32;;;1.45;;
27746;SDS011;15138;51.012;4.692;2023-06-26T09:36:07;9.63;;;1.48;;
27746;SDS011;15138;51.012;4.692;2023-06-26T09:38:47;6.05;;;1.40;;
27746;SDS011;15138;51.012;4.692;2023-06-26T09:41:15;5.90;;;1.50;;
27746;SDS011;15138;51.012;4.692;2023-06-26T09:43:48;6.35;;;1.55;;
27746;SDS011;15138;51.012;4.692;2023-06-26T09:46:16;9.00;;;1.52;;
27746;SDS011;15138;51.012;4.692;2023-06-26T09:48:45;5.70;;;1.65;;
27746;SDS011;15138;51.012;4.692;2023-06-26T09:51:13;7.57;;;1.60;;
27746;SDS011;15138;51.012;4.692;2023-06-26T09:53:43;4.90;;;1.20;;
27746;SDS011;15138;51.012;4.692;2023-06-26T09:56:16;5.18;;;1.27;;
27746;SDS011;15138;51.012;4.692;2023-06-26T09:58:44;5.65;;;1.40;;
27746;SDS011;15138;51.012;4.692;2023-06-26T10:01:13;4.82;;;1.17;;
27746;SDS011;15138;51.012;4.692;2023-06-26T10:03:42;8.38;;;1.35;;
27746;SDS011;15138;51.012;4.692;2023-06-26T10:06:11;3.83;;;1.20;;
27746;SDS011;15138;51.012;4.692;2023-06-26T10:08:40;8.57;;;1.63;;
27746;SDS011;15138;51.012;4.692;2023-06-26T10:11:11;4.38;;;1.33;;
27746;SDS011;15138;51.012;4.692;2023-06-26T10:13:45;5.53;;;1.08;;
27746;SDS011;15138;51.012;4.692;2023-06-26T10:16:17;5.70;;;0.98;;
27746;SDS011;15138;51.012;4.692;2023-06-26T10:18:51;6.72;;;1.40;;
27746;SDS011;15138;51.012;4.692;2023-06-26T10:21:22;5.35;;;1.33;;
27746;SDS011;15138;51.012;4.692;2023-06-26T10:23:53;10.70;;;1.58;;
27746;SDS011;15138;51.012;4.692;2023-06-26T10:26:22;5.05;;;1.42;;
27746;SDS011;15138;51.012;4.692;2023-06-26T10:28:55;7.82;;;1.45;;
27746;SDS011;15138;51.012;4.692;2023-06-26T10:31:25;3.47;;;1.10;;
27746;SDS011;15138;51.012;4.692;2023-06-26T10:33:57;7.75;;;1.27;;
27746;SDS011;15138;51.012;4.692;2023-06-26T10:36:27;7.18;;;1.60;;
27746;SDS011;15138;51.012;4.692;2023-06-26T10:39:03;5.55;;;1.27;;
27746;SDS011;15138;51.012;4.692;2023-06-26T10:41:36;5.13;;;1.58;;
27746;SDS011;15138;51.012;4.692;2023-06-26T10:44:17;4.68;;;1.50;;
27746;SDS011;15138;51.012;4.692;2023-06-26T10:46:50;5.35;;;1.10;;
27746;SDS011;15138;51.012;4.692;2023-06-26T10:49:19;7.78;;;1.50;;
27746;SDS011;15138;51.012;4.692;2023-06-26T10:51:48;6.88;;;1.50;;
27746;SDS011;15138;51.012;4.692;2023-06-26T10:54:18;5.03;;;1.60;;
27746;SDS011;15138;51.012;4.692;2023-06-26T10:56:47;5.20;;;1.55;;
27746;SDS011;15138;51.012;4.692;2023-06-26T10:59:18;5.15;;;1.50;;
27746;SDS011;15138;51.012;4.692;2023-06-26T11:01:54;6.53;;;1.10;;
27746;SDS011;15138;51.012;4.692;2023-06-26T11:04:36;6.63;;;1.92;;
27746;SDS011;15138;51.012;4.692;2023-06-26T11:07:15;4.60;;;1.02;;
27746;SDS011;15138;51.012;4.692;2023-06-26T11:09:54;4.97;;;1.30;;
27746;SDS011;15138;51.012;4.692;2023-06-26T11:12:38;2.50;;;1.15;;
27746;SDS011;15138;51.012;4.692;2023-06-26T11:15:11;4.00;;;1.10;;
27746;SDS011;15138;51.012;4.692;2023-06-26T11:17:41;5.70;;;1.25;;
27746;SDS011;15138;51.012;4.692;2023-06-26T11:20:10;5.30;;;1.20;;
27746;SDS011;15138;51.012;4.692;2023-06-26T11:22:40;5.40;;;1.50;;
27746;SDS011;15138;51.012;4.692;2023-06-26T11:25:09;6.25;;;1.40;;
27746;SDS011;15138;51.012;4.692;2023-06-26T11:27:38;2.45;;;1.20;;
27746;SDS011;15138;51.012;4.692;2023-06-26T11:30:07;8.10;;;1.25;;
27746;SDS011;15138;51.012;4.692;2023-06-26T11:32:38;3.92;;;1.08;;
27746;SDS011;15138;51.012;4.692;2023-06-26T11:35:07;3.58;;;1.10;;
27746;SDS011;15138;51.012;4.692;2023-06-26T11:37:36;6.90;;;1.50;;
27746;SDS011;15138;51.012;4.692;2023-06-26T11:40:17;2.97;;;1.10;;
27746;SDS011;15138;51.012;4.692;2023-06-26T11:42:45;4.82;;;1.15;;
27746;SDS011;15138;51.012;4.692;2023-06-26T11:45:13;4.18;;;1.23;;
27746;SDS011;15138;51.012;4.692;2023-06-26T11:47:43;4.25;;;1.55;;
27746;SDS011;15138;51.012;4.692;2023-06-26T11:50:14;3.30;;;1.30;;
27746;SDS011;15138;51.012;4.692;2023-06-26T11:52:43;7.68;;;1.45;;
27746;SDS011;15138;51.012;4.692;2023-06-26T11:55:13;4.55;;;1.30;;
27746;SDS011;15138;51.012;4.692;2023-06-26T11:57:41;4.75;;;1.10;;
27746;SDS011;15138;51.012;4.692;2023-06-26T12:00:13;5.47;;;1.25;;
27746;SDS011;15138;51.012;4.692;2023-06-26T12:02:44;11.35;;;1.83;;
27746;SDS011;15138;51.012;4.692;2023-06-26T12:05:13;3.50;;;1.20;;
27746;SDS011;15138;51.012;4.692;2023-06-26T12:07:42;3.53;;;1.05;;
27746;SDS011;15138;51.012;4.692;2023-06-26T12:10:12;4.47;;;1.30;;
27746;SDS011;15138;51.012;4.692;2023-06-26T12:12:42;7.55;;;1.80;;
27746;SDS011;15138;51.012;4.692;2023-06-26T12:15:14;6.65;;;1.13;;
27746;SDS011;15138;51.012;4.692;2023-06-26T12:17:44;2.05;;;0.93;;
27746;SDS011;15138;51.012;4.692;2023-06-26T12:20:18;5.90;;;1.40;;
27746;SDS011;15138;51.012;4.692;2023-06-26T12:22:48;9.05;;;1.20;;
27746;SDS011;15138;51.012;4.692;2023-06-26T12:25:21;3.83;;;1.25;;
27746;SDS011;15138;51.012;4.692;2023-06-26T12:27:50;5.68;;;1.30;;
27746;SDS011;15138;51.012;4.692;2023-06-26T12:30:18;4.28;;;1.10;;
27746;SDS011;15138;51.012;4.692;2023-06-26T12:32:48;3.25;;;1.02;;
27746;SDS011;15138;51.012;4.692;2023-06-26T12:35:16;5.85;;;1.40;;
27746;SDS011;15138;51.012;4.692;2023-06-26T12:37:44;2.55;;;1.05;;
27746;SDS011;15138;51.012;4.692;2023-06-26T12:40:16;5.05;;;0.95;;
27746;SDS011;15138;51.012;4.692;2023-06-26T12:42:45;8.13;;;1.30;;
27746;SDS011;15138;51.012;4.692;2023-06-26T12:45:14;4.43;;;0.95;;
27746;SDS011;15138;51.012;4.692;2023-06-26T12:48:07;4.53;;;1.20;;
27746;SDS011;15138;51.012;4.692;2023-06-26T12:50:42;5.75;;;1.58;;
27746;SDS011;15138;51.012;4.692;2023-06-26T12:53:12;4.78;;;1.50;;
27746;SDS011;15138;51.012;4.692;2023-06-26T12:55:40;4.20;;;1.35;;
27746;SDS011;15138;51.012;4.692;2023-06-26T12:58:08;6.63;;;1.48;;
27746;SDS011;15138;51.012;4.692;2023-06-26T13:00:36;4.32;;;1.48;;
27746;SDS011;15138;51.012;4.692;2023-06-26T13:03:06;5.70;;;1.48;;
27746;SDS011;15138;51.012;4.692;2023-06-26T13:05:37;8.10;;;1.50;;
27746;SDS011;15138;51.012;4.692;2023-06-26T13:08:05;4.10;;;1.23;;
27746;SDS011;15138;51.012;4.692;2023-06-26T13:10:34;4.53;;;1.00;;
27746;SDS011;15138;51.012;4.692;2023-06-26T13:13:03;6.43;;;1.15;;
27746;SDS011;15138;51.012;4.692;2023-06-26T13:15:31;5.45;;;1.25;;
27746;SDS011;15138;51.012;4.692;2023-06-26T13:17:59;5.55;;;1.65;;
27746;SDS011;15138;51.012;4.692;2023-06-26T13:20:29;4.18;;;1.50;;
27746;SDS011;15138;51.012;4.692;2023-06-26T13:22:57;4.03;;;1.33;;
27746;SDS011;15138;51.012;4.692;2023-06-26T13:25:26;7.28;;;1.48;;
27746;SDS011;15138;51.012;4.692;2023-06-26T13:27:54;8.82;;;1.40;;
27746;SDS011;15138;51.012;4.692;2023-06-26T13:30:22;6.05;;;1.67;;
27746;SDS011;15138;51.012;4.692;2023-06-26T13:32:50;3.95;;;1.30;;
27746;SDS011;15138;51.012;4.692;2023-06-26T13:35:19;2.80;;;1.05;;
27746;SDS011;15138;51.012;4.692;2023-06-26T13:37:48;4.20;;;1.45;;
27746;SDS011;15138;51.012;4.692;2023-06-26T13:40:17;9.00;;;1.35;;
27746;SDS011;15138;51.012;4.692;2023-06-26T13:42:45;1.95;;;1.02;;
27746;SDS011;15138;51.012;4.692;2023-06-26T13:45:13;5.95;;;1.58;;
27746;SDS011;15138;51.012;4.692;2023-06-26T13:47:56;4.38;;;1.30;;
27746;SDS011;15138;51.012;4.692;2023-06-26T13:50:24;6.28;;;1.60;;
27746;SDS011;15138;51.012;4.692;2023-06-26T13:53:11;4.20;;;1.20;;
27746;SDS011;15138;51.012;4.692;2023-06-26T13:55:40;3.92;;;1.40;;
27746;SDS011;15138;51.012;4.692;2023-06-26T13:58:08;4.28;;;1.52;;
27746;SDS011;15138;51.012;4.692;2023-06-26T14:00:37;7.32;;;1.45;;
27746;SDS011;15138;51.012;4.692;2023-06-26T14:03:06;12.15;;;1.58;;
27746;SDS011;15138;51.012;4.692;2023-06-26T14:05:36;4.63;;;1.20;;
27746;SDS011;15138;51.012;4.692;2023-06-26T14:08:08;6.55;;;1.50;;
27746;SDS011;15138;51.012;4.692;2023-06-26T14:10:38;4.45;;;1.30;;
27746;SDS011;15138;51.012;4.692;2023-06-26T14:13:07;4.90;;;1.30;;
27746;SDS011;15138;51.012;4.692;2023-06-26T14:15:38;5.03;;;1.50;;
27746;SDS011;15138;51.012;4.692;2023-06-26T14:18:06;8.43;;;1.60;;
27746;SDS011;15138;51.012;4.692;2023-06-26T14:20:35;7.43;;;1.67;;
27746;SDS011;15138;51.012;4.692;2023-06-26T14:23:03;2.97;;;1.25;;
27746;SDS011;15138;51.012;4.692;2023-06-26T14:25:32;4.53;;;1.48;;
27746;SDS011;15138;51.012;4.692;2023-06-26T14:28:01;4.47;;;1.30;;
27746;SDS011;15138;51.012;4.692;2023-06-26T14:30:30;5.50;;;1.23;;
27746;SDS011;15138;51.012;4.692;2023-06-26T14:32:58;3.72;;;1.50;;
27746;SDS011;15138;51.012;4.692;2023-06-26T14:35:26;7.90;;;1.40;;
27746;SDS011;15138;51.012;4.692;2023-06-26T14:37:54;3.85;;;1.10;;
27746;SDS011;15138;51.012;4.692;2023-06-26T14:40:22;4.13;;;1.60;;
27746;SDS011;15138;51.012;4.692;2023-06-26T14:42:51;3.75;;;1.33;;
27746;SDS011;15138;51.012;4.692;2023-06-26T14:45:22;3.97;;;1.30;;
27746;SDS011;15138;51.012;4.692;2023-06-26T14:47:51;4.60;;;1.60;;
27746;SDS011;15138;51.012;4.692;2023-06-26T14:50:19;8.45;;;1.50;;
27746;SDS011;15138;51.012;4.692;2023-06-26T14:52:47;6.68;;;1.58;;
27746;SDS011;15138;51.012;4.692;2023-06-26T14:55:15;5.30;;;1.20;;
27746;SDS011;15138;51.012;4.692;2023-06-26T14:57:44;4.45;;;1.40;;